Time;durP1;ratioP1;P1;durP2;ratioP2;P2;SDS_P1;SDS_P2;PMS_P1;PMS_P2;Temp;Humidity;BMP_temperature;BMP_pressure;BME280_temperature;BME280_humidity;BME280_pressure;Samples;Min_cycle;Max_cycle;Signal;HPM_P1;HPM_P2
2022/01/15 00:00:37;;;;;;;17.00;8.50;;;6.20;99.90;;;;;;5108831;27;20035;-82
2022/01/15 00:03:04;;;;;;;15.68;9.13;;;6.20;99.90;;;;;;5129610;27;20046;-82
2022/01/15 00:05:31;;;;;;;14.63;7.80;;;6.10;99.90;;;;;;5117088;27;20035;-82
2022/01/15 00:07:57;;;;;;;15.98;8.70;;;6.20;99.90;;;;;;5121395;27;20043;-82
2022/01/15 00:10:27;;;;;;;15.70;8.45;;;6.20;99.90;;;;;;5122523;27;20107;-82
2022/01/15 00:12:54;;;;;;;15.98;8.55;;;6.10;99.90;;;;;;5135793;27;20160;-82
2022/01/15 00:15:26;;;;;;;17.42;9.10;;;6.20;99.90;;;;;;5120433;27;20434;-82
2022/01/15 00:18:00;;;;;;;19.40;8.82;;;6.10;99.90;;;;;;5120167;27;20035;-82
2022/01/15 00:20:28;;;;;;;15.50;7.95;;;6.10;99.90;;;;;;5131879;27;20031;-81
2022/01/15 00:22:56;;;;;;;14.75;8.73;;;6.10;99.90;;;;;;5109172;27;20043;-82
2022/01/15 00:25:24;;;;;;;13.65;8.30;;;6.10;99.90;;;;;;5118140;27;20400;-82
2022/01/15 00:27:50;;;;;;;15.13;8.23;;;6.10;99.90;;;;;;5128768;27;20046;-82
2022/01/15 00:30:17;;;;;;;17.25;8.73;;;6.10;99.90;;;;;;5102340;27;20047;-82
2022/01/15 00:32:42;;;;;;;20.08;8.20;;;6.10;99.90;;;;;;5117040;27;20035;-82
2022/01/15 00:35:10;;;;;;;15.52;8.20;;;6.10;99.90;;;;;;5133354;27;20031;-82
2022/01/15 00:37:36;;;;;;;15.13;7.50;;;6.10;99.90;;;;;;5124330;27;20042;-82
2022/01/15 00:40:06;;;;;;;11.70;6.65;;;6.20;99.90;;;;;;5134369;27;20038;-82
2022/01/15 00:42:33;;;;;;;11.02;5.43;;;6.10;99.90;;;;;;5119357;27;20038;-82
2022/01/15 00:45:01;;;;;;;11.32;6.45;;;6.10;99.90;;;;;;5116246;27;20057;-82
2022/01/15 00:47:31;;;;;;;12.10;6.70;;;6.10;99.90;;;;;;5118156;27;20396;-82
2022/01/15 00:49:58;;;;;;;13.68;6.75;;;6.10;99.90;;;;;;5133849;27;20027;-82
2022/01/15 00:52:23;;;;;;;11.27;6.20;;;6.10;99.90;;;;;;5131197;27;20411;-82
2022/01/15 00:54:49;;;;;;;6.75;3.72;;;6.10;99.90;;;;;;5123755;27;20031;-82
2022/01/15 00:57:14;;;;;;;7.28;4.43;;;6.10;99.90;;;;;;5119406;27;20066;-82
2022/01/15 00:59:40;;;;;;;6.03;3.53;;;6.10;99.90;;;;;;5111349;27;20031;-83
2022/01/15 01:02:05;;;;;;;8.95;4.18;;;6.00;99.90;;;;;;5116701;27;20035;-83
2022/01/15 01:04:31;;;;;;;7.13;3.90;;;6.00;99.90;;;;;;5116770;27;20176;-83
2022/01/15 01:06:56;;;;;;;7.15;4.18;;;6.00;99.90;;;;;;5118878;27;20039;-82
2022/01/15 01:09:25;;;;;;;6.55;3.85;;;6.00;99.90;;;;;;5116022;27;20050;-82
2022/01/15 01:11:58;;;;;;;8.90;4.30;;;6.00;99.90;;;;;;5133310;27;20119;-83
2022/01/15 01:20:09;;;;;;;;;;;6.00;99.90;;;;;;5121429;27;20053;-82
2022/01/15 01:22:54;;;;;;;7.03;4.13;;;6.00;99.90;;;;;;5129381;27;19922;-82
2022/01/15 01:25:20;;;;;;;7.65;4.05;;;6.10;99.90;;;;;;5102370;27;20035;-83
2022/01/15 01:27:50;;;;;;;6.88;4.20;;;6.10;99.90;;;;;;5113138;27;20074;-83
2022/01/15 01:32:51;;;;;;;8.65;4.43;;;6.00;99.90;;;;;;5095916;28;20085;-82
2022/01/15 01:35:45;;;;;;;10.00;5.00;;;6.00;99.90;;;;;;5114090;27;20043;-82
2022/01/15 01:40:58;;;;;;;6.70;4.10;;;6.00;99.90;;;;;;5110332;27;20049;-82
2022/01/15 01:46:00;;;;;;;7.82;4.35;;;6.00;99.90;;;;;;5110708;27;20091;-83
2022/01/15 01:48:25;;;;;;;5.43;3.00;;;6.00;99.90;;;;;;5114529;27;20571;-83
2022/01/15 01:50:51;;;;;;;5.38;2.95;;;6.00;99.90;;;;;;5100715;27;20122;-82
2022/01/15 01:53:16;;;;;;;5.68;3.50;;;5.90;99.90;;;;;;5125654;27;20493;-83
2022/01/15 01:55:42;;;;;;;6.10;3.50;;;5.90;99.90;;;;;;5115722;27;20074;-83
2022/01/15 01:58:07;;;;;;;5.63;3.00;;;5.90;99.90;;;;;;5118476;27;20471;-82
2022/01/15 02:00:33;;;;;;;4.70;2.95;;;6.00;99.90;;;;;;5101300;27;20050;-82
2022/01/15 02:02:59;;;;;;;5.30;2.90;;;5.90;99.90;;;;;;5117032;27;20042;-82
2022/01/15 02:05:25;;;;;;;5.65;3.30;;;5.90;99.90;;;;;;5122097;27;20496;-82
2022/01/15 02:07:52;;;;;;;5.90;3.15;;;5.80;99.90;;;;;;5133265;27;20038;-83
2022/01/15 02:10:19;;;;;;;4.57;2.85;;;5.90;99.90;;;;;;5115018;27;20095;-82
2022/01/15 02:12:47;;;;;;;4.63;2.80;;;5.90;99.90;;;;;;5099297;27;20420;-82
2022/01/15 02:15:15;;;;;;;4.90;2.95;;;5.90;99.90;;;;;;5128650;27;20034;-82
2022/01/15 02:17:42;;;;;;;5.40;3.05;;;5.90;99.90;;;;;;5098474;27;20118;-82
2022/01/15 02:25:47;;;;;;;4.28;2.50;;;6.00;99.90;;;;;;5114619;27;20047;-83
2022/01/15 02:28:15;;;;;;;4.85;2.47;;;6.00;99.90;;;;;;5098224;27;20118;-83
2022/01/15 02:30:40;;;;;;;8.02;2.83;;;5.90;99.90;;;;;;5097053;27;20073;-83
2022/01/15 02:33:07;;;;;;;5.65;3.03;;;5.90;99.90;;;;;;5116363;27;20066;-83
2022/01/15 02:35:33;;;;;;;5.25;2.85;;;6.00;99.90;;;;;;5125692;27;20043;-83
2022/01/15 02:38:04;;;;;;;5.50;2.85;;;6.00;99.90;;;;;;5121997;27;20042;-83
2022/01/15 02:40:33;;;;;;;5.10;2.88;;;6.00;99.90;;;;;;5098863;27;20043;-83
2022/01/15 02:43:05;;;;;;;4.78;2.90;;;5.90;99.90;;;;;;5114978;28;20039;-83
2022/01/15 02:45:34;;;;;;;5.00;2.90;;;6.00;99.90;;;;;;5132003;27;20057;-83
2022/01/15 02:48:10;;;;;;;6.55;3.05;;;5.90;99.90;;;;;;5118526;27;20043;-83
2022/01/15 02:50:36;;;;;;;5.57;2.80;;;5.90;99.90;;;;;;5127993;27;20039;-83
2022/01/15 02:53:03;;;;;;;5.88;2.92;;;5.90;99.90;;;;;;5127783;27;20386;-83
2022/01/15 02:55:29;;;;;;;4.45;2.72;;;5.90;99.90;;;;;;5103632;27;20087;-83
2022/01/15 02:57:54;;;;;;;5.95;3.05;;;5.90;99.90;;;;;;5126536;27;20412;-82
2022/01/15 03:00:21;;;;;;;6.93;3.20;;;5.90;99.90;;;;;;5122472;27;20197;-83
2022/01/15 03:02:46;;;;;;;5.25;2.97;;;5.90;99.90;;;;;;5135064;27;20038;-83
2022/01/15 03:05:12;;;;;;;4.97;2.88;;;5.80;99.90;;;;;;5139766;27;20491;-83
2022/01/15 03:07:37;;;;;;;5.13;2.90;;;5.90;99.90;;;;;;5137725;27;20039;-83
2022/01/15 03:10:04;;;;;;;4.82;3.05;;;5.80;99.90;;;;;;5139381;27;20034;-83
2022/01/15 03:12:30;;;;;;;5.22;3.05;;;5.90;99.90;;;;;;5131137;27;20053;-83
2022/01/15 03:15:00;;;;;;;4.97;2.80;;;5.90;99.90;;;;;;5120231;27;20050;-83
2022/01/15 03:17:26;;;;;;;4.47;2.72;;;5.90;99.90;;;;;;5103518;27;20104;-83
2022/01/15 03:19:51;;;;;;;5.13;3.20;;;5.80;99.90;;;;;;5113631;27;20034;-83
2022/01/15 03:22:17;;;;;;;5.40;2.75;;;5.80;99.90;;;;;;5103744;27;20515;-83
2022/01/15 03:24:42;;;;;;;5.63;2.90;;;5.80;99.90;;;;;;5121995;27;20455;-82
2022/01/15 03:27:08;;;;;;;4.97;2.50;;;5.80;99.90;;;;;;5120529;27;20046;-82
2022/01/15 03:29:33;;;;;;;5.88;2.80;;;5.80;99.90;;;;;;5126927;27;20030;-83
2022/01/15 03:31:59;;;;;;;5.97;3.05;;;5.80;99.90;;;;;;5141586;27;20038;-83
2022/01/15 03:34:24;;;;;;;4.85;2.83;;;5.80;99.90;;;;;;5134985;27;20039;-82
2022/01/15 03:36:50;;;;;;;6.13;2.90;;;5.90;99.90;;;;;;5139428;27;20034;-82
2022/01/15 03:39:16;;;;;;;6.15;2.95;;;5.80;99.90;;;;;;5121586;27;20035;-83
2022/01/15 03:41:41;;;;;;;6.50;3.00;;;5.80;99.90;;;;;;5122911;27;20039;-83
2022/01/15 03:44:07;;;;;;;5.47;2.85;;;5.80;99.90;;;;;;5104529;27;20031;-83
2022/01/15 03:46:32;;;;;;;4.95;2.97;;;5.80;99.90;;;;;;5121136;27;20412;-82
2022/01/15 03:48:58;;;;;;;4.97;3.00;;;5.80;99.90;;;;;;5115972;27;20133;-83
2022/01/15 03:51:23;;;;;;;7.15;3.08;;;5.80;99.90;;;;;;5135826;27;20399;-83
2022/01/15 03:53:49;;;;;;;6.43;3.20;;;5.80;99.90;;;;;;5126942;27;20100;-83
2022/01/15 03:56:15;;;;;;;5.55;2.88;;;5.80;99.90;;;;;;5136051;27;20463;-83
2022/01/15 03:58:40;;;;;;;5.30;3.17;;;5.70;99.90;;;;;;5116319;27;20118;-83
2022/01/15 04:01:06;;;;;;;5.32;3.03;;;5.70;99.90;;;;;;5121782;27;20037;-82
2022/01/15 04:03:32;;;;;;;4.82;2.88;;;5.70;99.90;;;;;;5130830;27;20179;-83
2022/01/15 04:05:57;;;;;;;5.43;3.20;;;5.80;99.90;;;;;;5138628;27;20048;-83
2022/01/15 04:08:23;;;;;;;7.55;3.30;;;5.70;99.90;;;;;;5133763;27;20070;-83
2022/01/15 04:10:48;;;;;;;5.93;3.17;;;5.80;99.90;;;;;;5123943;27;20043;-83
2022/01/15 04:13:15;;;;;;;5.32;3.35;;;5.80;99.90;;;;;;5123497;27;20035;-83
2022/01/15 04:15:42;;;;;;;6.65;4.00;;;5.80;99.90;;;;;;5117819;27;20041;-83
2022/01/15 04:18:08;;;;;;;6.88;3.25;;;5.80;99.90;;;;;;5127712;27;20034;-83
2022/01/15 04:20:33;;;;;;;7.25;3.28;;;5.80;99.90;;;;;;5117017;27;20035;-83
2022/01/15 04:22:59;;;;;;;6.65;3.33;;;5.80;99.90;;;;;;5118015;27;20066;-83
2022/01/15 04:25:25;;;;;;;5.47;3.15;;;5.70;99.90;;;;;;5123766;27;20046;-83
2022/01/15 04:27:51;;;;;;;5.65;3.17;;;5.80;99.90;;;;;;5125297;27;20077;-83
2022/01/15 04:30:19;;;;;;;4.72;2.90;;;5.80;99.90;;;;;;5101295;27;20512;-83
2022/01/15 04:32:44;;;;;;;5.75;3.15;;;5.80;99.90;;;;;;5121053;27;20392;-83
2022/01/15 04:35:10;;;;;;;7.43;3.33;;;5.80;99.90;;;;;;5129756;27;20071;-83
2022/01/15 04:37:46;;;;;;;6.07;3.67;;;5.80;99.90;;;;;;5100528;27;20035;-83
2022/01/15 04:40:14;;;;;;;6.25;3.33;;;5.70;99.90;;;;;;5123554;27;20035;-83
2022/01/15 04:42:42;;;;;;;7.45;3.05;;;5.80;99.90;;;;;;5133982;27;20080;-82
2022/01/15 04:45:08;;;;;;;7.20;3.45;;;5.80;99.90;;;;;;5125045;27;20047;-83
2022/01/15 04:47:35;;;;;;;5.45;3.10;;;5.70;99.90;;;;;;5134576;27;20035;-82
2022/01/15 04:50:06;;;;;;;6.47;3.50;;;5.80;99.90;;;;;;5101273;27;20042;-83
2022/01/15 04:52:34;;;;;;;5.47;3.15;;;5.80;99.90;;;;;;5120375;27;20031;-83
2022/01/15 04:55:00;;;;;;;7.28;3.53;;;5.80;99.90;;;;;;5123552;27;20043;-83
2022/01/15 04:57:26;;;;;;;6.45;3.78;;;5.80;99.90;;;;;;5099807;27;20431;-83
2022/01/15 04:59:51;;;;;;;6.25;3.75;;;5.80;99.90;;;;;;5117154;27;20039;-83
2022/01/15 05:02:17;;;;;;;5.35;3.17;;;5.80;99.90;;;;;;5117256;27;20043;-83
2022/01/15 05:04:42;;;;;;;5.93;3.70;;;5.70;99.90;;;;;;5122643;27;20035;-83
2022/01/15 05:07:08;;;;;;;8.02;3.90;;;5.70;99.90;;;;;;5130224;27;20042;-83
2022/01/15 05:09:33;;;;;;;6.53;3.50;;;5.70;99.90;;;;;;5132541;27;20377;-83
2022/01/15 05:12:03;;;;;;;8.38;3.60;;;5.80;99.90;;;;;;5119690;27;20031;-83
2022/01/15 05:14:29;;;;;;;7.25;3.60;;;5.80;99.90;;;;;;5115770;27;20047;-83
2022/01/15 05:16:55;;;;;;;6.32;3.60;;;5.80;99.90;;;;;;5115332;27;20113;-83
2022/01/15 05:19:21;;;;;;;8.00;3.80;;;5.80;99.90;;;;;;5118402;27;20065;-83
2022/01/15 05:21:46;;;;;;;6.80;3.67;;;5.80;99.90;;;;;;5098915;27;20236;-83
2022/01/15 05:24:12;;;;;;;7.53;4.63;;;5.80;99.90;;;;;;5120813;27;20469;-83
2022/01/15 05:26:37;;;;;;;9.00;4.72;;;5.70;99.90;;;;;;5134171;27;20091;-83
2022/01/15 05:29:03;;;;;;;8.13;4.53;;;5.80;99.90;;;;;;5119728;27;20039;-83
2022/01/15 05:31:29;;;;;;;8.15;4.32;;;5.70;99.90;;;;;;5118664;27;20035;-83
2022/01/15 05:33:55;;;;;;;9.02;4.60;;;5.70;99.90;;;;;;5131878;27;20505;-83
2022/01/15 05:36:21;;;;;;;11.68;4.82;;;5.80;99.90;;;;;;5117903;27;20388;-83
2022/01/15 05:38:47;;;;;;;6.85;4.05;;;5.70;99.90;;;;;;5125821;27;20038;-83
2022/01/15 05:41:13;;;;;;;9.00;4.50;;;5.70;99.90;;;;;;5116059;27;20035;-83
2022/01/15 05:43:38;;;;;;;8.73;3.97;;;5.70;99.90;;;;;;5134130;27;20046;-83
2022/01/15 05:46:04;;;;;;;7.82;4.75;;;5.70;99.90;;;;;;5131205;27;20055;-83
2022/01/15 05:48:29;;;;;;;7.93;4.32;;;5.80;99.90;;;;;;5130959;27;20038;-83
2022/01/15 05:50:55;;;;;;;7.90;4.80;;;5.80;99.90;;;;;;5105200;27;20042;-83
2022/01/15 05:53:21;;;;;;;7.15;4.53;;;5.80;99.90;;;;;;5134440;27;20125;-83
2022/01/15 05:55:46;;;;;;;7.10;4.40;;;5.70;99.90;;;;;;5133556;27;20047;-83
2022/01/15 05:58:12;;;;;;;7.45;4.50;;;5.70;99.90;;;;;;5115311;27;20042;-83
2022/01/15 06:00:37;;;;;;;8.50;4.30;;;5.70;99.90;;;;;;5124031;27;20038;-83
2022/01/15 06:03:03;;;;;;;7.55;4.03;;;5.70;99.90;;;;;;5132683;27;20410;-83
2022/01/15 06:05:29;;;;;;;6.78;3.70;;;5.70;99.90;;;;;;5132387;27;20609;-83
2022/01/15 06:07:55;;;;;;;7.47;4.10;;;5.70;99.90;;;;;;5133193;27;20049;-83
2022/01/15 06:10:20;;;;;;;7.20;3.97;;;5.60;99.90;;;;;;5121655;27;20046;-83
2022/01/15 06:12:46;;;;;;;7.32;3.95;;;5.70;99.90;;;;;;5133317;27;20090;-83
2022/01/15 06:15:12;;;;;;;8.02;4.43;;;5.60;99.90;;;;;;5128669;27;20087;-82
2022/01/15 06:17:38;;;;;;;7.65;4.32;;;5.60;99.90;;;;;;5116656;27;20565;-83
2022/01/15 06:20:05;;;;;;;10.77;4.43;;;5.60;99.90;;;;;;5094273;28;20067;-82
2022/01/15 06:22:30;;;;;;;7.32;4.20;;;5.70;99.90;;;;;;5096505;27;20031;-83
2022/01/15 06:24:56;;;;;;;6.88;4.00;;;5.60;99.90;;;;;;5104864;28;20043;-82
2022/01/15 06:27:21;;;;;;;6.57;3.75;;;5.60;99.90;;;;;;5095395;27;20070;-83
2022/01/15 06:29:47;;;;;;;5.85;3.55;;;5.60;99.90;;;;;;5097880;27;20047;-83
2022/01/15 06:32:12;;;;;;;5.63;3.35;;;5.60;99.90;;;;;;5097480;27;20035;-83
2022/01/15 06:34:39;;;;;;;7.40;4.22;;;5.50;99.90;;;;;;5130480;27;20486;-83
2022/01/15 06:37:05;;;;;;;6.65;4.10;;;5.60;99.90;;;;;;5133214;27;20039;-83
2022/01/15 06:39:32;;;;;;;5.32;2.72;;;5.50;99.90;;;;;;5116647;27;20083;-83
2022/01/15 06:41:58;;;;;;;5.80;3.47;;;5.50;99.90;;;;;;5117470;27;20035;-83
2022/01/15 06:44:23;;;;;;;4.80;2.70;;;5.50;99.90;;;;;;5101395;27;20508;-83
2022/01/15 06:46:49;;;;;;;5.53;3.05;;;5.50;99.90;;;;;;5131912;27;20073;-83
2022/01/15 06:49:14;;;;;;;4.03;2.47;;;5.50;99.90;;;;;;5132728;27;20045;-83
2022/01/15 06:51:40;;;;;;;5.88;2.60;;;5.50;99.90;;;;;;5118943;27;20412;-83
2022/01/15 06:54:05;;;;;;;5.93;3.13;;;5.50;99.90;;;;;;5102564;27;20515;-83
2022/01/15 06:56:31;;;;;;;5.47;3.17;;;5.50;99.90;;;;;;5121014;27;20031;-83
2022/01/15 06:58:56;;;;;;;5.35;3.10;;;5.50;99.90;;;;;;5130974;27;20567;-83
2022/01/15 07:01:23;;;;;;;5.50;2.97;;;5.50;99.90;;;;;;5113469;27;20027;-83
2022/01/15 07:03:49;;;;;;;4.45;2.65;;;5.50;99.90;;;;;;5132332;27;20053;-84
2022/01/15 07:06:14;;;;;;;5.38;2.90;;;5.50;99.90;;;;;;5131679;27;20038;-84
2022/01/15 07:08:40;;;;;;;5.50;3.25;;;5.50;99.90;;;;;;5101382;27;20027;-84
2022/01/15 07:11:05;;;;;;;5.65;3.08;;;5.50;99.90;;;;;;5113434;27;20181;-84
2022/01/15 07:13:33;;;;;;;6.38;3.30;;;5.50;99.90;;;;;;5132466;27;20037;-84
2022/01/15 07:15:59;;;;;;;5.72;3.78;;;5.40;99.90;;;;;;5106595;27;20043;-83
2022/01/15 07:18:24;;;;;;;6.90;3.65;;;5.50;99.90;;;;;;5132795;27;20041;-84
2022/01/15 07:20:51;;;;;;;6.72;3.00;;;5.50;99.90;;;;;;5131416;27;20031;-83
2022/01/15 07:23:17;;;;;;;7.25;3.88;;;5.40;99.90;;;;;;5114749;28;20067;-84
2022/01/15 07:25:43;;;;;;;6.18;3.78;;;5.50;99.90;;;;;;5118024;27;20108;-84
2022/01/15 07:28:08;;;;;;;8.23;3.50;;;5.40;99.90;;;;;;5096281;28;20042;-84
2022/01/15 07:30:35;;;;;;;6.55;3.60;;;5.40;99.90;;;;;;5113577;28;20061;-84
2022/01/15 07:33:01;;;;;;;7.43;3.70;;;5.40;99.90;;;;;;5119303;27;20086;-84
2022/01/15 07:35:26;;;;;;;7.00;4.07;;;5.50;99.90;;;;;;5111090;27;20069;-83
2022/01/15 07:37:52;;;;;;;6.00;3.45;;;5.50;99.90;;;;;;5121511;27;20027;-84
2022/01/15 07:40:17;;;;;;;6.40;3.95;;;5.50;99.90;;;;;;5114515;28;20051;-84
2022/01/15 07:42:44;;;;;;;7.55;4.07;;;5.50;99.90;;;;;;5100957;27;20553;-84
2022/01/15 07:45:13;;;;;;;7.68;4.15;;;5.50;99.90;;;;;;5119034;27;20380;-84
2022/01/15 07:47:39;;;;;;;7.20;3.85;;;5.50;99.90;;;;;;5124312;27;20038;-84
2022/01/15 07:50:07;;;;;;;7.88;3.70;;;5.50;99.90;;;;;;5118285;27;20027;-84
2022/01/15 07:52:33;;;;;;;7.68;4.05;;;5.50;99.90;;;;;;5120853;27;20436;-84
2022/01/15 07:55:00;;;;;;;8.70;4.88;;;5.50;99.90;;;;;;5118865;27;20069;-84
2022/01/15 07:57:26;;;;;;;8.32;4.30;;;5.50;99.90;;;;;;5125389;27;20038;-83
2022/01/15 07:59:52;;;;;;;7.75;4.28;;;5.40;99.90;;;;;;5129814;27;20027;-84
2022/01/15 08:02:18;;;;;;;9.23;5.07;;;5.40;99.90;;;;;;5129050;27;20573;-83
2022/01/15 08:04:43;;;;;;;9.43;4.70;;;5.50;99.90;;;;;;5122560;27;20066;-84
2022/01/15 08:07:09;;;;;;;9.52;4.25;;;5.50;99.90;;;;;;5119120;27;20043;-83
2022/01/15 08:09:35;;;;;;;7.28;4.05;;;5.40;99.90;;;;;;5118406;27;20062;-83
2022/01/15 08:12:02;;;;;;;7.82;4.13;;;5.40;99.90;;;;;;5117464;27;20134;-83
2022/01/15 08:14:28;;;;;;;8.18;3.80;;;5.40;99.90;;;;;;5116344;27;20039;-83
2022/01/15 08:16:53;;;;;;;6.90;4.20;;;5.40;99.90;;;;;;5117647;27;20087;-84
2022/01/15 08:19:19;;;;;;;9.38;4.65;;;5.40;99.90;;;;;;5117123;27;20043;-84
2022/01/15 08:21:44;;;;;;;8.90;4.60;;;5.40;99.90;;;;;;5117785;27;20046;-85
2022/01/15 08:24:10;;;;;;;8.70;4.43;;;5.40;99.90;;;;;;5117267;27;20083;-85
2022/01/15 08:26:36;;;;;;;11.13;5.20;;;5.40;99.90;;;;;;5101567;27;20122;-85
2022/01/15 08:29:02;;;;;;;11.27;5.57;;;5.40;99.90;;;;;;5106410;27;20462;-85
2022/01/15 08:31:27;;;;;;;10.93;5.30;;;5.40;99.90;;;;;;5127812;27;20107;-85
2022/01/15 08:33:53;;;;;;;11.00;5.40;;;5.40;99.90;;;;;;5116218;27;20043;-85
2022/01/15 08:36:20;;;;;;;9.90;4.70;;;5.40;99.90;;;;;;5116516;27;20489;-85
2022/01/15 08:38:46;;;;;;;7.78;4.35;;;5.40;99.90;;;;;;5117470;27;20114;-85
2022/01/15 08:41:14;;;;;;;8.93;4.38;;;5.40;99.90;;;;;;5116321;27;20031;-85
2022/01/15 08:43:41;;;;;;;7.32;4.15;;;5.40;99.90;;;;;;5120623;27;20144;-85
2022/01/15 08:46:06;;;;;;;6.90;4.05;;;5.40;99.90;;;;;;5116225;27;20039;-85
2022/01/15 08:48:32;;;;;;;6.82;4.18;;;5.40;99.90;;;;;;5116161;27;20045;-85
2022/01/15 08:50:58;;;;;;;6.60;3.33;;;5.40;99.90;;;;;;5117230;27;20043;-85
2022/01/15 08:53:23;;;;;;;6.25;2.97;;;5.40;99.90;;;;;;5115303;27;20039;-86
2022/01/15 08:55:49;;;;;;;6.20;3.20;;;5.40;99.90;;;;;;5098727;27;20096;-84
2022/01/15 08:58:15;;;;;;;7.88;3.50;;;5.40;99.90;;;;;;5115962;27;20077;-85
2022/01/15 09:00:41;;;;;;;6.68;3.08;;;5.40;99.90;;;;;;5116161;27;20126;-85
2022/01/15 09:03:08;;;;;;;5.00;3.35;;;5.40;99.90;;;;;;5115221;27;20034;-85
2022/01/15 09:05:35;;;;;;;5.88;3.15;;;5.40;99.90;;;;;;5119363;27;20143;-84
2022/01/15 09:08:03;;;;;;;5.07;2.80;;;5.50;99.90;;;;;;5115813;27;20039;-85
2022/01/15 09:10:28;;;;;;;5.95;2.88;;;5.50;99.90;;;;;;5116536;27;20047;-85
2022/01/15 09:12:54;;;;;;;5.20;3.03;;;5.50;99.90;;;;;;5097469;27;20417;-84
2022/01/15 09:15:20;;;;;;;6.53;3.40;;;5.40;99.90;;;;;;5123436;27;20054;-84
2022/01/15 09:17:45;;;;;;;5.32;3.20;;;5.40;99.90;;;;;;5118482;27;20027;-84
2022/01/15 09:20:12;;;;;;;5.70;3.50;;;5.40;99.90;;;;;;5115603;27;20050;-84
2022/01/15 09:22:37;;;;;;;7.22;3.75;;;5.30;99.90;;;;;;5115450;27;20252;-85
2022/01/15 09:25:04;;;;;;;6.97;3.63;;;5.40;99.90;;;;;;5122337;27;20194;-84
2022/01/15 09:30:17;;;;;;;7.60;4.55;;;5.50;99.90;;;;;;5108062;27;20431;-85
2022/01/15 09:32:54;;;;;;;9.10;4.32;;;5.40;99.90;;;;;;5101437;28;20040;-84
2022/01/15 09:35:23;;;;;;;10.10;4.47;;;5.40;99.90;;;;;;5109107;27;20390;-84
2022/01/15 09:37:49;;;;;;;9.10;5.00;;;5.40;99.90;;;;;;5107360;27;20516;-85
2022/01/15 09:40:16;;;;;;;10.70;5.50;;;5.40;99.90;;;;;;5105610;27;20031;-84
2022/01/15 09:42:44;;;;;;;10.45;5.43;;;5.40;99.90;;;;;;5108717;27;20489;-84
2022/01/15 09:45:11;;;;;;;10.00;6.00;;;5.40;99.90;;;;;;5103068;28;20043;-85
2022/01/15 09:47:37;;;;;;;10.40;6.53;;;5.40;99.90;;;;;;5103250;27;20516;-84
2022/01/15 09:50:06;;;;;;;12.75;6.43;;;5.40;99.90;;;;;;5113068;27;20050;-85
2022/01/15 09:52:32;;;;;;;13.13;6.82;;;5.40;99.90;;;;;;5108443;28;20039;-85
2022/01/15 09:54:59;;;;;;;11.40;6.07;;;5.40;99.90;;;;;;5106143;27;20519;-84
2022/01/15 09:57:25;;;;;;;12.93;6.43;;;5.40;99.90;;;;;;5098723;28;20031;-84
2022/01/15 09:59:51;;;;;;;13.65;6.97;;;5.50;99.90;;;;;;5105732;27;20038;-84
2022/01/15 10:02:17;;;;;;;13.43;7.50;;;5.50;99.90;;;;;;5113830;27;20114;-84
2022/01/15 10:04:42;;;;;;;13.85;7.68;;;5.50;99.90;;;;;;5115233;27;20039;-85
2022/01/15 10:07:22;;;;;;;13.20;7.55;;;5.50;99.90;;;;;;5124930;27;20083;-85
2022/01/15 10:09:49;;;;;;;14.15;7.68;;;5.50;99.90;;;;;;5132323;27;20053;-85
2022/01/15 10:12:29;;;;;;;12.73;7.25;;;5.50;99.90;;;;;;5112836;27;20041;-84
2022/01/15 10:14:59;;;;;;;14.57;7.60;;;5.40;99.90;;;;;;5108620;27;20052;-84
2022/01/15 10:17:32;;;;;;;13.63;7.00;;;5.50;99.90;;;;;;5114373;27;20035;-84
2022/01/15 10:19:59;;;;;;;11.02;6.75;;;5.50;99.90;;;;;;5097160;27;20031;-84
2022/01/15 10:22:27;;;;;;;15.90;8.20;;;5.50;99.90;;;;;;5103033;27;20031;-84
2022/01/15 10:24:59;;;;;;;14.05;7.65;;;5.50;99.90;;;;;;5110317;28;20524;-84
2022/01/15 10:27:40;;;;;;;13.93;7.55;;;5.40;99.90;;;;;;5108507;27;20034;-83
2022/01/15 10:30:08;;;;;;;14.45;7.38;;;5.50;99.90;;;;;;5124634;27;20038;-84
2022/01/15 10:32:40;;;;;;;14.65;7.57;;;5.50;99.90;;;;;;5107494;27;20070;-84
2022/01/15 10:35:11;;;;;;;12.75;7.35;;;5.50;99.90;;;;;;5101771;27;20099;-84
2022/01/15 10:37:53;;;;;;;15.07;7.65;;;5.40;99.90;;;;;;5112842;27;20441;-84
2022/01/15 10:40:23;;;;;;;15.43;8.43;;;5.50;99.90;;;;;;5103102;28;20057;-84
2022/01/15 10:42:59;;;;;;;17.17;8.80;;;5.50;99.90;;;;;;5123206;27;20431;-84
2022/01/15 10:45:29;;;;;;;15.80;8.45;;;5.40;99.90;;;;;;5119647;27;20142;-84
2022/01/15 10:47:57;;;;;;;17.23;8.80;;;5.50;99.90;;;;;;5111204;27;20084;-84
2022/01/15 10:50:36;;;;;;;16.58;8.80;;;5.40;99.90;;;;;;5099357;28;20063;-84
2022/01/15 10:53:10;;;;;;;19.00;8.85;;;5.40;99.90;;;;;;5102609;27;20514;-84
2022/01/15 10:55:38;;;;;;;19.80;9.43;;;5.40;99.90;;;;;;5093471;28;20088;-84
2022/01/15 10:58:06;;;;;;;24.02;10.30;;;5.40;99.90;;;;;;5114754;27;20044;-85
2022/01/15 11:00:41;;;;;;;19.60;9.13;;;5.40;99.90;;;;;;5121841;27;20058;-84
2022/01/15 11:03:17;;;;;;;21.70;10.88;;;5.40;99.90;;;;;;5083014;27;20035;-85
2022/01/15 11:05:52;;;;;;;23.38;10.55;;;5.40;99.90;;;;;;5122505;27;20432;-86
2022/01/15 11:08:23;;;;;;;19.55;10.60;;;5.40;99.90;;;;;;5102435;27;20043;-85
2022/01/15 11:10:53;;;;;;;22.38;10.00;;;5.30;99.90;;;;;;5118695;28;20039;-84
2022/01/15 11:13:43;;;;;;;20.58;11.20;;;5.30;99.90;;;;;;5111918;28;20095;-84
2022/01/15 11:16:14;;;;;;;20.85;10.18;;;5.30;99.90;;;;;;5085747;28;20092;-85
2022/01/15 11:18:42;;;;;;;21.30;10.50;;;5.30;99.90;;;;;;5113034;28;20042;-84
2022/01/15 11:21:10;;;;;;;22.30;11.25;;;5.20;99.90;;;;;;5111128;27;20122;-85
2022/01/15 11:23:38;;;;;;;19.83;10.70;;;5.30;99.90;;;;;;5114200;28;20088;-85
2022/01/15 11:26:32;;;;;;;20.33;10.52;;;5.20;99.90;;;;;;5097213;28;20397;-85
2022/01/15 11:28:58;;;;;;;23.10;11.63;;;5.20;99.90;;;;;;5103559;28;20070;-84
2022/01/15 11:31:26;;;;;;;20.42;11.00;;;5.20;99.90;;;;;;5113067;27;20047;-85
2022/01/15 11:33:55;;;;;;;20.70;10.77;;;5.30;99.90;;;;;;5100087;27;20043;-85
2022/01/15 11:36:41;;;;;;;21.15;11.27;;;5.20;99.90;;;;;;5098548;27;20087;-84
2022/01/15 11:39:09;;;;;;;21.30;11.80;;;5.30;99.90;;;;;;5114213;28;20436;-85
2022/01/15 11:41:39;;;;;;;23.33;12.38;;;5.20;99.90;;;;;;5131411;27;20035;-84
2022/01/15 11:44:17;;;;;;;23.65;12.20;;;5.30;99.90;;;;;;5089513;27;20060;-84
2022/01/15 11:46:44;;;;;;;22.42;12.32;;;5.30;99.90;;;;;;5115378;27;20031;-84
2022/01/15 11:49:32;;;;;;;24.75;12.38;;;5.30;99.90;;;;;;5113588;28;20115;-85
2022/01/15 11:52:11;;;;;;;22.08;12.35;;;5.30;99.90;;;;;;5100116;28;20047;-85
2022/01/15 11:54:39;;;;;;;23.92;12.43;;;5.30;99.90;;;;;;5109442;27;20051;-85
2022/01/15 11:57:23;;;;;;;23.25;12.63;;;5.40;99.90;;;;;;5096535;28;20485;-84
2022/01/15 11:59:51;;;;;;;22.25;12.20;;;5.30;99.90;;;;;;5113400;27;20392;-84
2022/01/15 12:02:24;;;;;;;25.08;12.82;;;5.30;99.90;;;;;;5113746;28;20101;-84
2022/01/15 12:04:50;;;;;;;24.63;12.60;;;5.30;99.90;;;;;;5109651;27;20443;-85
2022/01/15 12:07:16;;;;;;;23.42;12.68;;;5.30;99.90;;;;;;5093743;28;20046;-84
2022/01/15 12:09:50;;;;;;;24.73;13.00;;;5.30;99.90;;;;;;5096860;28;20043;-85
2022/01/15 12:12:31;;;;;;;22.75;13.07;;;5.30;99.90;;;;;;5096930;28;20105;-85
2022/01/15 12:14:56;;;;;;;20.70;12.02;;;5.20;99.90;;;;;;5079294;28;20052;-85
2022/01/15 12:17:30;;;;;;;21.45;12.15;;;5.20;99.90;;;;;;5096318;28;20043;-85
2022/01/15 12:19:56;;;;;;;21.58;12.43;;;5.20;99.90;;;;;;5081063;28;20056;-84
2022/01/15 12:22:40;;;;;;;19.77;12.27;;;5.20;99.90;;;;;;5095703;28;20040;-85
2022/01/15 12:25:07;;;;;;;20.10;11.18;;;5.20;99.90;;;;;;5101582;27;20204;-85
2022/01/15 12:27:34;;;;;;;19.02;11.02;;;5.10;99.90;;;;;;5078605;28;20036;-84
2022/01/15 12:30:02;;;;;;;21.35;11.93;;;5.20;99.90;;;;;;5099977;28;20058;-85
2022/01/15 12:32:33;;;;;;;20.77;11.57;;;5.10;99.90;;;;;;5096122;28;20481;-85
2022/01/15 12:35:00;;;;;;;18.33;10.90;;;5.10;99.90;;;;;;5095862;28;20439;-84
2022/01/15 12:37:26;;;;;;;18.25;10.60;;;5.10;99.90;;;;;;5096141;28;20511;-85
2022/01/15 12:39:51;;;;;;;17.42;10.90;;;5.10;99.90;;;;;;5095968;28;20074;-84
2022/01/15 12:42:18;;;;;;;19.25;11.95;;;5.10;99.90;;;;;;5095892;28;20071;-84
2022/01/15 12:44:51;;;;;;;18.40;11.20;;;5.10;99.90;;;;;;5095721;28;20515;-85
2022/01/15 12:47:17;;;;;;;18.73;11.52;;;5.20;99.90;;;;;;5101931;27;20500;-84
2022/01/15 12:49:49;;;;;;;21.75;12.82;;;5.20;99.90;;;;;;5093241;27;20413;-85
2022/01/15 12:52:22;;;;;;;21.60;13.40;;;5.20;99.90;;;;;;5100678;28;20095;-84
2022/01/15 12:54:49;;;;;;;24.67;13.57;;;5.20;99.90;;;;;;5108879;27;20044;-85
2022/01/15 12:57:36;;;;;;;21.10;12.68;;;5.20;99.90;;;;;;5100197;28;20039;-85
2022/01/15 13:00:09;;;;;;;21.42;13.40;;;5.20;99.90;;;;;;5109646;28;20055;-84
2022/01/15 13:02:35;;;;;;;21.52;13.02;;;5.10;99.90;;;;;;5103228;28;20039;-84
2022/01/15 13:05:01;;;;;;;21.42;13.40;;;5.10;99.90;;;;;;5091095;28;20039;-84
2022/01/15 13:07:26;;;;;;;22.42;13.45;;;5.10;99.90;;;;;;5105650;27;20043;-84
2022/01/15 13:09:52;;;;;;;21.85;13.60;;;5.10;99.90;;;;;;5115513;27;20043;-84
2022/01/15 13:12:17;;;;;;;24.38;13.85;;;5.00;99.90;;;;;;5112595;28;20666;-84
2022/01/15 13:14:44;;;;;;;25.05;14.57;;;5.00;99.90;;;;;;5108845;27;20112;-85
2022/01/15 13:17:24;;;;;;;25.15;14.45;;;5.00;99.90;;;;;;5111930;28;20118;-84